Allen, Michigan
Current Conditions -  °F | °C
As of 8:35 AM on Saturday 25 Oct 2014 (Local Time) from KJYM Reporting Station
Haze Haze  
Wind Chill: 55°   Ceiling: 1000
Heat Index: 55°   Visibility: 5mi
Dew Point: 54°   Wind: 6mph
Humidity: 95%   Direction: 260°W
Pressure: 29.86"   Gusts: NA
Location:  41.96°N, 84.77°W
Report Text: KJYM 251235Z AUTO 26005KT 5SM BR OVC010 13/12 A2986 RMK AO2 T01300122
Loading
Personal Weather Stations






























Interactive Weather Map
Tropical Storm Tracking
New forecast layout! Learn more

10-Day Weather Forecast

Advertisements
Track Severe Weather on mobile